Gaz Unity — HOEJ — position and weather

sailwx.info

Track history (hours):
 
Tides and Currents Weather Stations Pressure Air Temp Water Temp Dewpoint Dewpoint Depression Visibility Wind Speed Wind Dir Waves Ship Positions

Gaz Unity

Last reported at 2016-Jun-29 14:32 UTC. Time now 2016-Jun-29 14:47 UTC.
Position N 35°52' E 014°59'.

Length 228 m; draft 10.4 m.

Type: Ship (hazmat cat C). MMSI: 353956000.

Date/timePositionNaut miles runAvg speedWind from/ knotsBaromVisibWave heightAir tempDewpointWater temp
2016-Jun-29 14:32N 35°52' E 014°59'0 0.0
2016-Jun-29 13:32N 35°52' E 014°59'0 0.0
2016-Jun-29 12:29N 35°52' E 014°60'0 0.1
2016-Jun-29 11:32N 35°52' E 014°60'4 4.5
2016-Jun-29 10:33N 35°53' E 015°05'2 2.5
2016-Jun-29 09:33N 35°54' E 015°08'1 0.9
2016-Jun-29 08:34N 35°55' E 015°07'1 0.7
2016-Jun-29 07:33N 35°55' E 015°07'5 5.1
2016-Jun-29 06:33N 35°51' E 015°04'5 2.3
2016-Jun-29 04:16N 35°45' E 015°02'0 0.0
2016-Jun-28 21:31N 35°45' E 015°02'0 0.0
2016-Jun-28 20:31N 35°45' E 015°02'0 0.0
2016-Jun-28 19:31N 35°45' E 015°02'0 0.0
2016-Jun-28 18:31N 35°45' E 015°02'0 0.0
2016-Jun-28 17:31N 35°45' E 015°02'0 0.0
2016-Jun-28 14:25N 35°45' E 015°02'0 0.0
2016-Jun-28 13:31N 35°45' E 015°02'0 0.0
2016-Jun-28 12:31N 35°45' E 015°02'0 0.0
2016-Jun-28 11:28N 35°45' E 015°02'0 0.0
2016-Jun-28 10:31N 35°45' E 015°02'0 0.0
2016-Jun-28 09:31N 35°45' E 015°02'0 0.0
2016-Jun-28 08:31N 35°45' E 015°02'0 0.0
2016-Jun-28 07:31N 35°45' E 015°02'0 0.0
2016-Jun-28 06:28N 35°45' E 015°02'0 0.0
2016-Jun-28 04:31N 35°45' E 015°02'0 0.0
2016-Jun-28 03:31N 35°45' E 015°02'0 0.0
2016-Jun-28 02:31N 35°45' E 015°02'0 0.0
2016-Jun-28 01:31N 35°45' E 015°02'0 0.0
2016-Jun-28 00:31N 35°45' E 015°02'0 0.0
2016-Jun-27 23:31N 35°45' E 015°02'0 0.0
2016-Jun-27 22:31N 35°45' E 015°02'0 0.1
2016-Jun-27 21:31N 35°45' E 015°02'0 0.0
2016-Jun-27 20:31N 35°45' E 015°02'0 0.0
2016-Jun-27 19:31N 35°45' E 015°02'0 0.0
2016-Jun-27 18:31N 35°45' E 015°02'0 0.0
2016-Jun-27 17:31N 35°45' E 015°02'0 0.1
2016-Jun-27 16:31N 35°46' E 015°02'4 4.1
2016-Jun-27 15:33N 35°46' E 015°07'1 1.0
2016-Jun-27 14:33N 35°47' E 015°08'0 0.4
2016-Jun-27 13:33N 35°47' E 015°08'0 0.4
2016-Jun-27 12:34N 35°47' E 015°08'1 0.5
2016-Jun-27 11:34N 35°48' E 015°08'1 0.6
2016-Jun-27 10:33N 35°48' E 015°08'1 0.6
2016-Jun-27 09:33N 35°49' E 015°08'1 0.8
2016-Jun-27 08:33N 35°50' E 015°08'1 0.7
2016-Jun-27 07:34N 35°50' E 015°08'3 3.0
2016-Jun-27 06:34N 35°49' E 015°06'4 3.9
2016-Jun-27 05:33N 35°46' E 015°02'0 0.0
2016-Jun-27 04:32N 35°46' E 015°02'0 0.0
2016-Jun-27 03:29N 35°46' E 015°02'0 0.0
2016-Jun-27 02:32N 35°46' E 015°02'0 0.0
2016-Jun-27 01:32N 35°46' E 015°02'0 0.0
2016-Jun-27 00:26N 35°46' E 015°02'0 0.1
2016-Jun-26 23:29N 35°46' E 015°02'0 0.0
2016-Jun-26 22:32N 35°46' E 015°02'0 0.0
2016-Jun-26 21:32N 35°46' E 015°02'0 0.0
2016-Jun-26 20:32N 35°46' E 015°02'0 0.0
2016-Jun-26 19:32N 35°46' E 015°02'0 0.0
2016-Jun-26 18:32N 35°46' E 015°02'0 0.0
2016-Jun-26 17:32N 35°46' E 015°02'0 0.0
2016-Jun-26 16:32N 35°46' E 015°02'0 0.0
2016-Jun-26 14:32N 35°46' E 015°02'0 0.1
2016-Jun-26 13:29N 35°46' E 015°02'0 0.0
2016-Jun-26 12:32N 35°46' E 015°02'0 0.0
2016-Jun-26 11:32N 35°46' E 015°02'0 0.0
2016-Jun-26 10:26N 35°46' E 015°02'0 0.0
2016-Jun-26 07:17N 35°46' E 015°02'0 0.0
2016-Jun-26 06:32N 35°46' E 015°02'0 0.0
2016-Jun-26 05:32N 35°46' E 015°02'0 0.0
2016-Jun-26 04:32N 35°46' E 015°02'0 0.0
2016-Jun-26 03:26N 35°46' E 015°02'0 0.0
2016-Jun-25 19:17N 35°46' E 015°02'0 0.1
2016-Jun-25 18:23N 35°46' E 015°02'0 0.0
2016-Jun-25 17:32N 35°46' E 015°02'0 0.0
2016-Jun-25 16:32N 35°46' E 015°02'0 0.0
2016-Jun-25 15:29N 35°46' E 015°02'0 0.0
2016-Jun-25 14:32N 35°46' E 015°02'0 0.0
2016-Jun-25 13:29N 35°46' E 015°02'0 0.0
2016-Jun-25 12:14N 35°46' E 015°02'0 0.0
2016-Jun-25 11:32N 35°46' E 015°02'0 0.0
2016-Jun-25 08:32N 35°46' E 015°02'0 0.0
2016-Jun-25 07:14N 35°46' E 015°02'0 0.0
2016-Jun-25 06:32N 35°46' E 015°02'1 0.4
2016-Jun-25 04:03N 35°47' E 015°02'0 0.7
2016-Jun-25 03:33N 35°47' E 015°02'1 0.6
2016-Jun-25 02:33N 35°48' E 015°02'1 0.5
2016-Jun-25 01:19N 35°48' E 015°02'0 0.6
2016-Jun-25 00:33N 35°49' E 015°02'0 0.5
2016-Jun-24 23:33N 35°49' E 015°02'0 0.4
2016-Jun-24 22:33N 35°49' E 015°01'1 0.3
2016-Jun-24 20:14N 35°50' E 015°01'0 0.2
2016-Jun-24 19:29N 35°50' E 015°01'0 0.5
2016-Jun-24 18:33N 35°51' E 015°01'1 1.1
2016-Jun-24 17:31N 35°52' E 015°02'6 0.3
2016-Jun-23 20:28N 35°47' E 014°58'0 0.0
2016-Jun-23 19:31N 35°47' E 014°58'0 0.0
2016-Jun-23 18:31N 35°47' E 014°58'0 0.0
2016-Jun-23 17:28N 35°47' E 014°58'9 1.5
2016-Jun-23 11:33N 35°41' E 015°08'6 5.6
2016-Jun-23 10:33N 35°38' E 015°13'2 2.1
2016-Jun-23 09:32N 35°39' E 015°16'17 2.4
2016-Jun-23 02:29N 35°47' E 014°58'0 0.0
2016-Jun-23 01:32N 35°47' E 014°58'0 0.0
2016-Jun-23 00:17N 35°47' E 014°58'0 0.0
2016-Jun-22 23:32N 35°47' E 014°58'0 0.0
2016-Jun-22 22:32N 35°47' E 014°58'0 0.1
2016-Jun-22 20:29N 35°47' E 014°58'0 0.1
2016-Jun-22 19:32N 35°47' E 014°58'0 0.0
2016-Jun-22 15:32N 35°47' E 014°58'0 0.0
2016-Jun-22 14:32N 35°47' E 014°58'0 0.0
2016-Jun-22 13:29N 35°47' E 014°58'0 0.0
2016-Jun-22 11:32N 35°47' E 014°58'0 0.0
2016-Jun-22 10:23N 35°47' E 014°58'0 0.0
2016-Jun-22 09:32N 35°47' E 014°58'0 0.0
2016-Jun-22 08:32N 35°47' E 014°58'0 0.0
2016-Jun-22 07:29N 35°47' E 014°58'0 0.0
2016-Jun-22 06:32N 35°47' E 014°58'0 0.0
2016-Jun-22 04:11N 35°47' E 014°59'0 0.0
2016-Jun-22 01:29N 35°47' E 014°58'0 0.2
2016-Jun-22 00:32N 35°47' E 014°58'0 0.0
2016-Jun-21 18:32N 35°47' E 014°58'0 0.0
2016-Jun-21 17:32N 35°47' E 014°58'0 0.0
2016-Jun-21 16:32N 35°47' E 014°58'0 0.1
2016-Jun-21 15:32N 35°47' E 014°58'3 3.3
2016-Jun-21 14:33N 35°50' E 015°01'7 6.2
2016-Jun-21 13:20N 35°55' E 015°08'3 0.4
2016-Jun-21 06:33N 35°54' E 015°05'8 0.6
2016-Jun-20 18:06N 35°47' E 014°58'0 0.0
2016-Jun-19 21:15N 35°47' E 014°58'0 0.0
2016-Jun-19 20:30N 35°47' E 014°58'0 0.0
2016-Jun-19 19:18N 35°47' E 014°58'0 0.0
2016-Jun-19 16:03N 35°47' E 014°58'0 0.0
2016-Jun-19 14:33N 35°47' E 014°58'  
Track history (hours):
 
Tides and Currents Weather Stations Pressure Air Temp Water Temp Dewpoint Dewpoint Depression Visibility Wind Speed Wind Dir Waves Ship Positions

Gaz Unity

Last reported at 2016-Jun-29 14:32 UTC. Time now 2016-Jun-29 14:47 UTC.
Position N 35°52' E 014°59'.

Length 228 m; draft 10.4 m.

Type: Ship (hazmat cat C). MMSI: 353956000.

Date/timePositionNaut miles runAvg speedWind from/ knotsBaromVisibWave heightAir tempDewpointWater temp
2016-Jun-29 14:32N 35°52' E 014°59'0 0.0
2016-Jun-29 13:32N 35°52' E 014°59'0 0.0
2016-Jun-29 12:29N 35°52' E 014°60'0 0.1
2016-Jun-29 11:32N 35°52' E 014°60'4 4.5
2016-Jun-29 10:33N 35°53' E 015°05'2 2.5
2016-Jun-29 09:33N 35°54' E 015°08'1 0.9
2016-Jun-29 08:34N 35°55' E 015°07'1 0.7
2016-Jun-29 07:33N 35°55' E 015°07'5 5.1
2016-Jun-29 06:33N 35°51' E 015°04'5 2.3
2016-Jun-29 04:16N 35°45' E 015°02'0 0.0
2016-Jun-28 21:31N 35°45' E 015°02'0 0.0
2016-Jun-28 20:31N 35°45' E 015°02'0 0.0
2016-Jun-28 19:31N 35°45' E 015°02'0 0.0
2016-Jun-28 18:31N 35°45' E 015°02'0 0.0
2016-Jun-28 17:31N 35°45' E 015°02'0 0.0
2016-Jun-28 14:25N 35°45' E 015°02'0 0.0
2016-Jun-28 13:31N 35°45' E 015°02'0 0.0
2016-Jun-28 12:31N 35°45' E 015°02'0 0.0
2016-Jun-28 11:28N 35°45' E 015°02'0 0.0
2016-Jun-28 10:31N 35°45' E 015°02'0 0.0
2016-Jun-28 09:31N 35°45' E 015°02'0 0.0
2016-Jun-28 08:31N 35°45' E 015°02'0 0.0
2016-Jun-28 07:31N 35°45' E 015°02'0 0.0
2016-Jun-28 06:28N 35°45' E 015°02'0 0.0
2016-Jun-28 04:31N 35°45' E 015°02'0 0.0
2016-Jun-28 03:31N 35°45' E 015°02'0 0.0
2016-Jun-28 02:31N 35°45' E 015°02'0 0.0
2016-Jun-28 01:31N 35°45' E 015°02'0 0.0
2016-Jun-28 00:31N 35°45' E 015°02'0 0.0
2016-Jun-27 23:31N 35°45' E 015°02'0 0.0
2016-Jun-27 22:31N 35°45' E 015°02'0 0.1
2016-Jun-27 21:31N 35°45' E 015°02'0 0.0
2016-Jun-27 20:31N 35°45' E 015°02'0 0.0
2016-Jun-27 19:31N 35°45' E 015°02'0 0.0
2016-Jun-27 18:31N 35°45' E 015°02'0 0.0
2016-Jun-27 17:31N 35°45' E 015°02'0 0.1
2016-Jun-27 16:31N 35°46' E 015°02'4 4.1
2016-Jun-27 15:33N 35°46' E 015°07'1 1.0
2016-Jun-27 14:33N 35°47' E 015°08'0 0.4
2016-Jun-27 13:33N 35°47' E 015°08'0 0.4
2016-Jun-27 12:34N 35°47' E 015°08'1 0.5
2016-Jun-27 11:34N 35°48' E 015°08'1 0.6
2016-Jun-27 10:33N 35°48' E 015°08'1 0.6
2016-Jun-27 09:33N 35°49' E 015°08'1 0.8
2016-Jun-27 08:33N 35°50' E 015°08'1 0.7
2016-Jun-27 07:34N 35°50' E 015°08'3 3.0
2016-Jun-27 06:34N 35°49' E 015°06'4 3.9
2016-Jun-27 05:33N 35°46' E 015°02'0 0.0
2016-Jun-27 04:32N 35°46' E 015°02'0 0.0
2016-Jun-27 03:29N 35°46' E 015°02'0 0.0
2016-Jun-27 02:32N 35°46' E 015°02'0 0.0
2016-Jun-27 01:32N 35°46' E 015°02'0 0.0
2016-Jun-27 00:26N 35°46' E 015°02'0 0.1
2016-Jun-26 23:29N 35°46' E 015°02'0 0.0
2016-Jun-26 22:32N 35°46' E 015°02'0 0.0
2016-Jun-26 21:32N 35°46' E 015°02'0 0.0
2016-Jun-26 20:32N 35°46' E 015°02'0 0.0
2016-Jun-26 19:32N 35°46' E 015°02'0 0.0
2016-Jun-26 18:32N 35°46' E 015°02'0 0.0
2016-Jun-26 17:32N 35°46' E 015°02'0 0.0
2016-Jun-26 16:32N 35°46' E 015°02'0 0.0
2016-Jun-26 14:32N 35°46' E 015°02'0 0.1
2016-Jun-26 13:29N 35°46' E 015°02'0 0.0
2016-Jun-26 12:32N 35°46' E 015°02'0 0.0
2016-Jun-26 11:32N 35°46' E 015°02'0 0.0
2016-Jun-26 10:26N 35°46' E 015°02'0 0.0
2016-Jun-26 07:17N 35°46' E 015°02'0 0.0
2016-Jun-26 06:32N 35°46' E 015°02'0 0.0
2016-Jun-26 05:32N 35°46' E 015°02'0 0.0
2016-Jun-26 04:32N 35°46' E 015°02'0 0.0
2016-Jun-26 03:26N 35°46' E 015°02'0 0.0
2016-Jun-25 19:17N 35°46' E 015°02'0 0.1
2016-Jun-25 18:23N 35°46' E 015°02'0 0.0
2016-Jun-25 17:32N 35°46' E 015°02'0 0.0
2016-Jun-25 16:32N 35°46' E 015°02'0 0.0
2016-Jun-25 15:29N 35°46' E 015°02'0 0.0
2016-Jun-25 14:32N 35°46' E 015°02'0 0.0
2016-Jun-25 13:29N 35°46' E 015°02'0 0.0
2016-Jun-25 12:14N 35°46' E 015°02'0 0.0
2016-Jun-25 11:32N 35°46' E 015°02'0 0.0
2016-Jun-25 08:32N 35°46' E 015°02'0 0.0
2016-Jun-25 07:14N 35°46' E 015°02'0 0.0
2016-Jun-25 06:32N 35°46' E 015°02'1 0.4
2016-Jun-25 04:03N 35°47' E 015°02'0 0.7
2016-Jun-25 03:33N 35°47' E 015°02'1 0.6
2016-Jun-25 02:33N 35°48' E 015°02'1 0.5
2016-Jun-25 01:19N 35°48' E 015°02'0 0.6
2016-Jun-25 00:33N 35°49' E 015°02'0 0.5
2016-Jun-24 23:33N 35°49' E 015°02'0 0.4
2016-Jun-24 22:33N 35°49' E 015°01'1 0.3
2016-Jun-24 20:14N 35°50' E 015°01'0 0.2
2016-Jun-24 19:29N 35°50' E 015°01'0 0.5
2016-Jun-24 18:33N 35°51' E 015°01'1 1.1
2016-Jun-24 17:31N 35°52' E 015°02'6 0.3
2016-Jun-23 20:28N 35°47' E 014°58'0 0.0
2016-Jun-23 19:31N 35°47' E 014°58'0 0.0
2016-Jun-23 18:31N 35°47' E 014°58'0 0.0
2016-Jun-23 17:28N 35°47' E 014°58'9 1.5
2016-Jun-23 11:33N 35°41' E 015°08'6 5.6
2016-Jun-23 10:33N 35°38' E 015°13'2 2.1
2016-Jun-23 09:32N 35°39' E 015°16'17 2.4
2016-Jun-23 02:29N 35°47' E 014°58'0 0.0
2016-Jun-23 01:32N 35°47' E 014°58'0 0.0
2016-Jun-23 00:17N 35°47' E 014°58'0 0.0
2016-Jun-22 23:32N 35°47' E 014°58'0 0.0
2016-Jun-22 22:32N 35°47' E 014°58'0 0.1
2016-Jun-22 20:29N 35°47' E 014°58'0 0.1
2016-Jun-22 19:32N 35°47' E 014°58'0 0.0
2016-Jun-22 15:32N 35°47' E 014°58'0 0.0
2016-Jun-22 14:32N 35°47' E 014°58'0 0.0
2016-Jun-22 13:29N 35°47' E 014°58'0 0.0
2016-Jun-22 11:32N 35°47' E 014°58'0 0.0
2016-Jun-22 10:23N 35°47' E 014°58'0 0.0
2016-Jun-22 09:32N 35°47' E 014°58'0 0.0
2016-Jun-22 08:32N 35°47' E 014°58'0 0.0
2016-Jun-22 07:29N 35°47' E 014°58'0 0.0
2016-Jun-22 06:32N 35°47' E 014°58'0 0.0
2016-Jun-22 04:11N 35°47' E 014°59'0 0.0
2016-Jun-22 01:29N 35°47' E 014°58'0 0.2
2016-Jun-22 00:32N 35°47' E 014°58'0 0.0
2016-Jun-21 18:32N 35°47' E 014°58'0 0.0
2016-Jun-21 17:32N 35°47' E 014°58'0 0.0
2016-Jun-21 16:32N 35°47' E 014°58'0 0.1
2016-Jun-21 15:32N 35°47' E 014°58'3 3.3
2016-Jun-21 14:33N 35°50' E 015°01'7 6.2
2016-Jun-21 13:20N 35°55' E 015°08'3 0.4
2016-Jun-21 06:33N 35°54' E 015°05'8 0.6
2016-Jun-20 18:06N 35°47' E 014°58'0 0.0
2016-Jun-19 21:15N 35°47' E 014°58'0 0.0
2016-Jun-19 20:30N 35°47' E 014°58'0 0.0
2016-Jun-19 19:18N 35°47' E 014°58'0 0.0
2016-Jun-19 16:03N 35°47' E 014°58'0 0.0
2016-Jun-19 14:33N 35°47' E 014°58'  

Dump ship's entire track history